2G6 weather

Mc Laughlin Seaplane Base
Chester, Virginia, United States

Public forecast

Using degrees Fahrenheit for public forecast. Weather courtesy of forecast.io.

METAR (pilot weather report)

Closest report is Chesterfield County Airport, 10.0 nm (18.5 km) WNW. Retrieved 2019/03/20 17:56 UTC (1 hour ago):

KFCI 201756Z AUTO 09007KT 10SM BKN065 13/M04 A3028 RMK AO2 SLP273 T01281039 10128 21017 58030

TAF (pilot weather forecast)

Closest forecast is Richmond International Airport, 11.2 nm (20.7 km) N. Retrieved 2019/03/20 18:42 UTC (15 minutes ago):

TAF KRIC 201739Z 2018/2118 09008KT P6SM BKN060 FM210000 08005KT 6SM -SHRA OVC025 FM210300 06006KT 4SM RA OVC007 FM210900 07005KT 2SM RA OVC004 FM211300 09007KT 5SM -SHRA OVC007 FM211600 15005KT P6SM OVC015